Time;durP1;ratioP1;P1;durP2;ratioP2;P2;SDS_P1;SDS_P2;PMS_P1;PMS_P2;Temp;Humidity;BMP_temperature;BMP_pressure;BME280_temperature;BME280_humidity;BME280_pressure;Samples;Min_cycle;Max_cycle;Signal;HPM_P1;HPM_P2
2022/05/28 00:00:26;;;;;;;6.97;5.88;;;21.70;99.90;;;;;;5044895;28;20593;-75
2022/05/28 00:02:53;;;;;;;6.57;5.97;;;21.70;99.90;;;;;;5048350;28;20203;-76
2022/05/28 00:05:20;;;;;;;5.75;5.18;;;21.60;99.90;;;;;;5037335;28;20296;-75
2022/05/28 00:07:47;;;;;;;5.45;5.05;;;21.60;99.90;;;;;;5042335;28;20281;-75
2022/05/28 00:10:18;;;;;;;8.02;5.35;;;21.60;99.90;;;;;;5040617;28;20234;-75
2022/05/28 00:12:47;;;;;;;5.50;5.10;;;21.60;99.90;;;;;;5041417;28;20199;-76
2022/05/28 00:15:14;;;;;;;6.55;5.90;;;21.60;99.90;;;;;;5043985;28;20233;-76
2022/05/28 00:17:41;;;;;;;6.60;5.97;;;21.60;99.90;;;;;;5044773;28;20257;-76
2022/05/28 00:20:10;;;;;;;5.63;5.13;;;21.60;99.90;;;;;;5043656;28;20233;-76
2022/05/28 00:22:39;;;;;;;5.70;5.05;;;21.60;99.90;;;;;;5042770;28;20514;-76
2022/05/28 00:25:10;;;;;;;8.57;5.57;;;21.50;99.90;;;;;;5040686;28;20219;-75
2022/05/28 00:27:38;;;;;;;5.85;5.25;;;21.50;99.90;;;;;;5042945;28;20285;-75
2022/05/28 00:30:07;;;;;;;7.45;6.05;;;21.50;99.90;;;;;;5043286;28;20571;-75
2022/05/28 00:32:34;;;;;;;6.18;5.57;;;21.40;99.90;;;;;;5038746;28;20195;-75
2022/05/28 00:35:01;;;;;;;6.97;6.18;;;21.40;99.90;;;;;;5038860;28;20213;-75
2022/05/28 00:37:28;;;;;;;5.72;5.25;;;21.30;99.90;;;;;;5061329;28;20199;-76
2022/05/28 00:39:55;;;;;;;7.40;6.15;;;21.30;99.90;;;;;;5044543;28;20226;-75
2022/05/28 00:42:22;;;;;;;5.57;5.07;;;21.30;99.90;;;;;;5045079;28;20260;-76
2022/05/28 00:44:51;;;;;;;6.53;5.70;;;21.30;99.90;;;;;;5039396;28;20570;-75
2022/05/28 00:47:19;;;;;;;5.72;5.22;;;21.40;99.90;;;;;;5045371;28;20203;-76
2022/05/28 00:49:46;;;;;;;5.75;5.25;;;21.40;99.90;;;;;;5043251;28;20229;-75
2022/05/28 00:52:14;;;;;;;6.25;5.65;;;21.40;99.90;;;;;;5043322;28;20754;-76
2022/05/28 00:54:45;;;;;;;5.63;4.85;;;21.50;99.90;;;;;;5042018;28;20242;-76
2022/05/28 00:57:14;;;;;;;6.35;5.50;;;21.40;99.90;;;;;;5047626;28;20277;-76
2022/05/28 00:59:42;;;;;;;5.90;5.30;;;21.40;99.90;;;;;;5047935;28;20747;-76
2022/05/28 01:02:16;;;;;;;5.65;5.05;;;21.40;99.90;;;;;;5049805;28;20217;-75
2022/05/28 01:04:52;;;;;;;5.78;5.28;;;21.40;99.90;;;;;;5047891;28;20223;-75
2022/05/28 01:07:29;;;;;;;5.88;5.38;;;21.40;99.90;;;;;;5042831;28;20256;-76
2022/05/28 01:10:02;;;;;;;5.78;5.20;;;21.40;99.90;;;;;;5044365;28;20246;-75
2022/05/28 01:12:38;;;;;;;8.43;5.30;;;21.30;99.90;;;;;;5045622;28;20280;-76
2022/05/28 01:15:10;;;;;;;5.63;5.13;;;21.30;99.90;;;;;;5036816;28;20219;-76
2022/05/28 01:17:43;;;;;;;6.50;5.05;;;21.20;99.90;;;;;;5022884;28;20226;-76
2022/05/28 01:20:15;;;;;;;5.50;5.00;;;21.10;99.90;;;;;;5025129;28;20236;-76
2022/05/28 01:23:04;;;;;;;5.70;5.22;;;21.10;99.90;;;;;;5031168;28;20203;-76
2022/05/28 01:25:41;;;;;;;5.30;4.90;;;21.10;99.90;;;;;;5026148;28;20227;-75
2022/05/28 01:28:15;;;;;;;5.97;5.47;;;21.10;99.90;;;;;;5026683;28;20245;-75
2022/05/28 01:30:45;;;;;;;6.85;5.63;;;21.00;99.90;;;;;;5029196;28;20528;-76
2022/05/28 01:33:15;;;;;;;5.75;5.25;;;21.00;99.90;;;;;;5026499;28;20290;-75
2022/05/28 01:35:45;;;;;;;5.25;4.75;;;21.00;99.90;;;;;;5022041;28;20216;-75
2022/05/28 01:38:14;;;;;;;5.88;5.38;;;20.90;99.90;;;;;;5021483;28;20290;-76
2022/05/28 01:40:42;;;;;;;7.03;5.43;;;20.90;99.90;;;;;;5031342;28;20701;-75
2022/05/28 01:43:14;;;;;;;5.43;5.00;;;20.90;99.90;;;;;;5046052;28;20222;-76
2022/05/28 01:45:45;;;;;;;5.28;4.88;;;20.80;99.90;;;;;;5041260;28;20219;-75
2022/05/28 01:48:14;;;;;;;5.07;4.50;;;20.80;99.90;;;;;;5043356;28;20237;-77
2022/05/28 01:50:44;;;;;;;5.13;4.70;;;20.80;99.90;;;;;;5043295;28;20493;-76
2022/05/28 01:54:07;;;;;;;4.80;4.40;;;20.70;99.90;;;;;;5048716;28;20699;-76
2022/05/28 01:56:06;;;;;;;5.15;4.75;;;20.70;99.90;;;;;;5040926;28;20221;-75
2022/05/28 01:58:35;;;;;;;4.90;4.50;;;20.70;99.90;;;;;;5045763;28;20239;-76
2022/05/28 02:01:04;;;;;;;5.70;4.95;;;20.70;99.90;;;;;;5042590;28;20219;-76
2022/05/28 02:10:27;;;;;;;5.00;4.50;;;20.80;99.90;;;;;;5050100;28;20220;-76
2022/05/28 02:12:59;;;;;;;4.97;4.47;;;20.80;99.90;;;;;;5044951;28;20591;-75
2022/05/28 02:15:40;;;;;;;4.80;4.40;;;20.80;99.90;;;;;;5050411;28;20191;-75
2022/05/28 02:18:17;;;;;;;4.45;4.05;;;20.70;99.90;;;;;;5045054;28;20619;-75
2022/05/28 02:20:54;;;;;;;4.85;4.45;;;20.70;99.90;;;;;;5040766;28;20199;-75
2022/05/28 02:23:26;;;;;;;4.80;4.30;;;20.70;99.90;;;;;;5042138;28;20222;-75
2022/05/28 02:25:58;;;;;;;5.07;4.63;;;20.60;99.90;;;;;;5037512;28;20214;-76
2022/05/28 02:28:28;;;;;;;5.20;4.35;;;20.50;99.90;;;;;;5042641;28;20215;-75
2022/05/28 02:31:02;;;;;;;5.10;4.63;;;20.50;99.90;;;;;;5044202;28;20203;-76
2022/05/28 02:33:30;;;;;;;4.80;4.45;;;20.50;99.90;;;;;;5044679;28;20250;-75
2022/05/28 02:35:57;;;;;;;4.70;4.30;;;20.50;99.90;;;;;;5049329;28;20195;-75
2022/05/28 02:38:24;;;;;;;4.63;4.22;;;20.50;99.90;;;;;;5043578;28;20219;-76
2022/05/28 02:40:54;;;;;;;4.60;4.20;;;20.50;99.90;;;;;;5040681;28;20278;-75
2022/05/28 02:43:22;;;;;;;4.10;3.80;;;20.40;99.90;;;;;;5042207;28;20215;-74
2022/05/28 02:45:49;;;;;;;4.70;4.22;;;20.40;99.90;;;;;;5042506;28;20219;-75
2022/05/28 02:48:17;;;;;;;5.90;4.40;;;20.40;99.90;;;;;;5044971;28;20655;-74
2022/05/28 02:50:45;;;;;;;4.40;4.00;;;20.30;99.90;;;;;;5045422;28;20248;-76
2022/05/28 02:53:13;;;;;;;4.40;3.90;;;20.30;99.90;;;;;;5056108;28;20222;-76
2022/05/28 02:55:40;;;;;;;5.18;4.22;;;20.30;99.90;;;;;;5044307;28;20731;-75
2022/05/28 02:58:07;;;;;;;4.43;4.13;;;20.30;99.90;;;;;;5042280;28;20222;-74
2022/05/28 03:00:35;;;;;;;4.68;4.15;;;20.20;99.90;;;;;;5044630;28;20198;-75
2022/05/28 03:03:02;;;;;;;4.38;3.97;;;20.20;99.90;;;;;;5042149;28;20226;-76
2022/05/28 03:05:30;;;;;;;4.50;4.13;;;20.20;99.90;;;;;;5042320;28;20199;-75
2022/05/28 03:07:58;;;;;;;5.60;4.40;;;20.10;99.90;;;;;;5046262;28;20384;-75
2022/05/28 03:10:25;;;;;;;4.80;4.32;;;20.10;99.90;;;;;;5045935;28;20475;-75
2022/05/28 03:12:52;;;;;;;5.20;4.45;;;20.10;99.90;;;;;;5043789;28;20256;-75
2022/05/28 03:15:19;;;;;;;4.45;4.05;;;20.10;99.90;;;;;;5044732;28;20195;-75
2022/05/28 03:17:47;;;;;;;5.97;4.57;;;20.10;99.90;;;;;;5042690;28;20223;-75
2022/05/28 03:20:14;;;;;;;5.25;4.22;;;20.00;99.90;;;;;;5042946;28;20640;-75
2022/05/28 03:22:42;;;;;;;4.75;4.35;;;20.00;99.90;;;;;;5041722;28;20226;-75
2022/05/28 03:25:10;;;;;;;5.00;4.60;;;20.00;99.90;;;;;;5044614;28;20601;-75
2022/05/28 03:27:37;;;;;;;5.45;4.97;;;19.90;99.90;;;;;;5038142;28;20289;-75
2022/05/28 03:30:05;;;;;;;4.85;4.45;;;19.90;99.90;;;;;;5046819;28;20214;-75
2022/05/28 03:32:32;;;;;;;5.22;4.75;;;19.90;99.90;;;;;;5038164;28;20214;-75
2022/05/28 03:34:59;;;;;;;4.72;4.18;;;19.90;99.90;;;;;;5039431;28;20183;-76
2022/05/28 03:37:26;;;;;;;6.72;4.53;;;19.90;99.90;;;;;;5044164;28;20222;-75
2022/05/28 03:39:54;;;;;;;4.65;4.25;;;19.90;99.90;;;;;;5058769;28;20644;-76
2022/05/28 03:42:21;;;;;;;4.70;4.30;;;19.90;99.90;;;;;;5044111;28;20222;-76
2022/05/28 03:44:48;;;;;;;4.65;4.22;;;19.90;99.90;;;;;;5041362;28;20199;-75
2022/05/28 03:47:15;;;;;;;4.28;3.85;;;19.80;99.90;;;;;;5039865;28;20231;-75
2022/05/28 03:49:44;;;;;;;5.10;4.43;;;19.70;99.90;;;;;;5041867;28;20825;-76
2022/05/28 03:52:13;;;;;;;4.50;4.10;;;19.60;99.90;;;;;;5042510;28;20233;-75
2022/05/28 03:54:43;;;;;;;4.63;4.10;;;19.60;99.90;;;;;;5047241;28;20198;-76
2022/05/28 04:00:33;;;;;;;4.55;4.20;;;19.70;99.90;;;;;;5039437;28;20181;-76
2022/05/28 04:03:01;;;;;;;4.10;3.70;;;19.60;99.90;;;;;;5046879;28;20210;-76
2022/05/28 04:05:28;;;;;;;4.63;4.15;;;19.50;99.90;;;;;;5041756;28;20254;-76
2022/05/28 04:07:55;;;;;;;5.15;4.20;;;19.40;99.90;;;;;;5040226;28;20280;-76
2022/05/28 04:10:25;;;;;;;4.13;3.70;;;19.40;99.90;;;;;;5117856;22;20638;-80
2022/05/28 04:12:52;;;;;;;3.70;3.40;;;19.40;99.90;;;;;;5115817;27;20235;-79
2022/05/28 04:15:19;;;;;;;3.28;2.97;;;19.40;99.90;;;;;;5118921;28;20197;-80
2022/05/28 04:17:47;;;;;;;3.50;3.22;;;19.40;99.90;;;;;;5114224;28;20898;-80
2022/05/28 04:20:15;;;;;;;3.65;3.28;;;19.40;99.90;;;;;;5117946;28;20201;-79
2022/05/28 04:22:42;;;;;;;3.88;3.30;;;19.50;99.90;;;;;;5093149;28;20213;-80
2022/05/28 04:25:10;;;;;;;3.45;3.15;;;19.50;99.90;;;;;;5095198;28;20200;-80
2022/05/28 04:27:41;;;;;;;3.72;3.08;;;19.60;99.90;;;;;;5097017;28;20233;-80
2022/05/28 04:30:09;;;;;;;2.50;2.30;;;19.60;99.90;;;;;;5099511;28;20197;-79
2022/05/28 04:32:36;;;;;;;2.90;2.70;;;19.70;99.90;;;;;;5100713;28;20221;-79
2022/05/28 04:35:05;;;;;;;2.80;2.60;;;19.80;99.90;;;;;;5105671;28;20220;-79
2022/05/28 04:37:32;;;;;;;3.30;2.35;;;19.90;99.90;;;;;;5101681;28;20233;-79
2022/05/28 04:39:59;;;;;;;2.40;2.30;;;20.00;99.90;;;;;;5104145;28;20605;-79
2022/05/28 04:42:26;;;;;;;3.30;3.00;;;20.10;99.90;;;;;;5094034;28;20236;-79
2022/05/28 04:44:56;;;;;;;3.25;2.88;;;20.20;99.90;;;;;;5101396;28;20206;-80
2022/05/28 04:47:23;;;;;;;3.05;2.78;;;20.30;99.90;;;;;;5098172;28;20229;-79
2022/05/28 04:49:50;;;;;;;4.60;3.67;;;20.30;99.90;;;;;;5091294;28;20213;-79
2022/05/28 04:52:19;;;;;;;3.25;3.00;;;20.30;99.90;;;;;;5086900;28;20198;-78
2022/05/28 04:54:46;;;;;;;3.20;2.90;;;20.20;99.90;;;;;;5086839;28;20221;-79
2022/05/28 04:57:13;;;;;;;4.60;3.15;;;20.30;99.90;;;;;;5089460;28;20243;-78
2022/05/28 04:59:40;;;;;;;3.25;2.95;;;20.30;99.90;;;;;;5097130;28;20706;-80
2022/05/28 05:02:07;;;;;;;3.15;2.95;;;20.30;99.90;;;;;;5101671;28;20201;-80
2022/05/28 05:04:35;;;;;;;3.03;2.72;;;20.50;99.90;;;;;;5101462;28;20217;-79
2022/05/28 05:07:02;;;;;;;2.70;2.50;;;20.60;99.90;;;;;;5089038;28;20218;-79
2022/05/28 05:09:31;;;;;;;3.17;2.88;;;20.80;99.90;;;;;;5092123;28;20262;-80
2022/05/28 05:11:58;;;;;;;3.60;3.28;;;20.90;99.90;;;;;;5088658;28;20214;-79
2022/05/28 05:14:25;;;;;;;4.80;3.90;;;21.00;99.90;;;;;;5086945;28;20689;-78
2022/05/28 05:16:52;;;;;;;4.47;3.42;;;21.00;99.90;;;;;;5095020;28;20259;-79
2022/05/28 05:19:19;;;;;;;4.13;3.78;;;21.00;99.90;;;;;;5090315;28;20221;-80
2022/05/28 05:21:47;;;;;;;3.55;3.22;;;20.90;99.90;;;;;;5093301;28;20212;-79
2022/05/28 05:24:14;;;;;;;4.30;3.92;;;20.90;99.90;;;;;;5086538;28;20721;-79
2022/05/28 05:26:42;;;;;;;4.13;3.60;;;20.90;99.90;;;;;;5081728;28;20222;-79
2022/05/28 05:29:09;;;;;;;3.70;3.40;;;20.90;99.90;;;;;;5083839;28;20213;-79
2022/05/28 05:31:36;;;;;;;4.75;3.30;;;20.90;99.90;;;;;;5090771;28;20558;-80
2022/05/28 05:34:04;;;;;;;4.60;3.80;;;21.00;99.90;;;;;;5087677;28;20224;-80
2022/05/28 05:36:31;;;;;;;3.70;3.40;;;21.10;99.90;;;;;;5088078;28;20682;-79
2022/05/28 05:38:58;;;;;;;5.07;3.80;;;21.20;99.90;;;;;;5085673;28;20294;-79
2022/05/28 05:41:25;;;;;;;3.67;3.38;;;21.30;99.90;;;;;;5087356;28;20251;-78
2022/05/28 05:43:54;;;;;;;6.28;3.92;;;21.40;99.90;;;;;;5089068;28;20354;-79
2022/05/28 05:46:21;;;;;;;4.60;4.20;;;21.40;99.90;;;;;;5090213;28;20202;-79
2022/05/28 05:48:48;;;;;;;4.80;3.72;;;21.50;99.90;;;;;;5092223;28;20795;-79
2022/05/28 05:51:17;;;;;;;3.80;3.50;;;21.60;99.90;;;;;;5092255;28;20254;-79
2022/05/28 05:53:45;;;;;;;4.28;3.80;;;21.80;99.90;;;;;;5091570;28;20217;-80
2022/05/28 05:56:12;;;;;;;5.40;4.90;;;22.00;99.90;;;;;;5091080;28;20205;-79
2022/05/28 05:58:39;;;;;;;5.13;4.45;;;22.10;99.90;;;;;;5089360;28;20304;-79
2022/05/28 06:01:08;;;;;;;5.18;4.45;;;22.00;99.90;;;;;;5094131;28;20644;-80
2022/05/28 06:03:38;;;;;;;5.30;4.75;;;22.10;99.90;;;;;;5090844;28;20221;-79
2022/05/28 06:06:07;;;;;;;5.00;4.47;;;22.20;99.90;;;;;;5091270;28;20296;-79
2022/05/28 06:08:34;;;;;;;4.63;4.20;;;22.20;99.90;;;;;;5086503;28;20669;-79
2022/05/28 06:11:01;;;;;;;4.65;4.28;;;22.30;99.90;;;;;;5086962;28;20932;-79
2022/05/28 06:13:28;;;;;;;5.65;3.72;;;22.40;99.90;;;;;;5084614;28;20229;-79
2022/05/28 06:15:55;;;;;;;4.47;3.63;;;22.40;99.90;;;;;;5093741;28;20586;-79
2022/05/28 06:18:24;;;;;;;4.22;3.75;;;22.30;99.90;;;;;;5090864;28;20217;-80
2022/05/28 06:20:53;;;;;;;4.07;3.40;;;22.30;99.90;;;;;;5091096;28;20202;-79
2022/05/28 06:23:21;;;;;;;3.90;3.55;;;22.20;99.90;;;;;;5087577;28;20222;-78
2022/05/28 06:25:48;;;;;;;3.47;3.17;;;22.30;99.90;;;;;;5076491;28;20276;-79
2022/05/28 06:28:15;;;;;;;3.08;2.88;;;22.50;99.90;;;;;;5082672;28;20298;-79
2022/05/28 06:30:44;;;;;;;3.55;2.85;;;22.70;99.90;;;;;;5085247;28;20190;-79
2022/05/28 06:33:12;;;;;;;4.15;2.58;;;22.90;99.90;;;;;;5079626;28;20624;-78
2022/05/28 06:35:41;;;;;;;2.95;2.72;;;23.10;99.90;;;;;;5083912;28;20304;-79
2022/05/28 06:38:09;;;;;;;2.83;2.53;;;23.20;99.90;;;;;;5083365;28;20275;-78
2022/05/28 06:40:37;;;;;;;2.88;2.50;;;23.30;99.90;;;;;;5082249;28;20713;-78
2022/05/28 06:43:04;;;;;;;2.65;2.45;;;23.30;99.90;;;;;;5084189;28;20237;-79
2022/05/28 06:45:31;;;;;;;2.88;2.30;;;23.30;99.90;;;;;;5082290;28;20197;-78
2022/05/28 06:47:59;;;;;;;3.72;2.60;;;23.50;99.90;;;;;;5076975;28;20292;-78
2022/05/28 06:53:20;;;;;;;4.30;2.90;;;24.00;99.90;;;;;;5056512;28;20227;-79
2022/05/28 06:55:48;;;;;;;3.78;2.30;;;24.20;99.90;;;;;;5077771;28;20241;-78
2022/05/28 06:58:15;;;;;;;2.97;2.58;;;24.00;99.90;;;;;;5081491;28;20283;-79
2022/05/28 07:00:43;;;;;;;3.17;2.40;;;23.80;99.90;;;;;;5083585;28;20593;-79
2022/05/28 07:03:14;;;;;;;3.67;2.85;;;23.50;99.90;;;;;;5081074;28;20274;-79
2022/05/28 07:05:41;;;;;;;3.00;2.67;;;23.40;99.90;;;;;;5082461;28;20218;-78
2022/05/28 07:08:09;;;;;;;6.40;2.72;;;23.50;99.90;;;;;;5081048;28;20233;-78
2022/05/28 07:10:42;;;;;;;3.17;2.60;;;23.50;99.90;;;;;;5084793;28;20254;-78
2022/05/28 07:13:10;;;;;;;2.85;2.55;;;23.50;99.90;;;;;;5081622;28;20239;-79
2022/05/28 07:15:38;;;;;;;3.33;2.70;;;23.50;99.90;;;;;;5082413;28;20200;-80
2022/05/28 07:18:06;;;;;;;2.95;2.60;;;23.60;99.90;;;;;;5087005;28;20228;-79
2022/05/28 07:20:33;;;;;;;4.20;2.45;;;23.70;99.90;;;;;;5099875;28;20256;-81
2022/05/28 07:23:06;;;;;;;2.80;2.60;;;24.00;99.90;;;;;;5094723;28;20197;-80
2022/05/28 07:25:33;;;;;;;3.00;2.70;;;24.20;99.90;;;;;;5100331;28;20190;-80
2022/05/28 07:28:24;;;;;;;5.50;2.42;;;24.20;99.90;;;;;;5089908;28;20237;-80
2022/05/28 07:30:49;;;;;;;5.20;3.17;;;24.30;99.90;;;;;;5089588;28;20247;-80
2022/05/28 07:33:16;;;;;;;2.97;2.78;;;24.40;99.90;;;;;;5095875;28;20354;-80
2022/05/28 07:35:43;;;;;;;3.00;2.80;;;24.40;99.90;;;;;;5095125;28;20560;-81
2022/05/28 07:38:10;;;;;;;4.22;3.20;;;24.40;99.90;;;;;;5098639;28;20707;-81
2022/05/28 07:40:38;;;;;;;2.95;2.65;;;24.50;99.90;;;;;;5087799;28;20206;-81
2022/05/28 07:43:06;;;;;;;2.97;2.45;;;24.70;99.90;;;;;;5079897;28;20209;-80
2022/05/28 07:45:38;;;;;;;3.17;2.88;;;25.00;99.90;;;;;;5081968;28;20193;-84
2022/05/28 07:48:06;;;;;;;4.10;2.60;;;25.20;99.90;;;;;;5078828;28;20301;-82
2022/05/28 07:50:33;;;;;;;3.15;2.80;;;25.40;99.90;;;;;;5083677;28;20198;-83
2022/05/28 07:53:01;;;;;;;2.92;2.70;;;25.30;99.90;;;;;;5081160;28;20205;-81
2022/05/28 07:55:28;;;;;;;4.00;2.38;;;25.30;99.90;;;;;;5082099;28;20227;-83
2022/05/28 07:57:55;;;;;;;3.25;2.80;;;25.40;99.90;;;;;;5078973;28;20193;-84
2022/05/28 08:00:24;;;;;;;3.70;2.50;;;25.30;99.90;;;;;;5076604;28;20535;-84
2022/05/28 08:02:51;;;;;;;5.55;2.50;;;25.30;99.90;;;;;;5076439;28;20197;-81
2022/05/28 08:05:18;;;;;;;3.67;2.92;;;25.50;99.90;;;;;;5080069;28;20221;-81
2022/05/28 08:07:46;;;;;;;2.67;2.30;;;25.70;99.90;;;;;;5087819;28;20228;-82
2022/05/28 08:10:13;;;;;;;3.15;2.60;;;25.70;99.90;;;;;;5083653;28;20758;-82
2022/05/28 08:12:40;;;;;;;2.75;2.40;;;25.70;99.90;;;;;;5083551;28;20193;-82
2022/05/28 08:15:11;;;;;;;5.20;2.70;;;25.80;99.90;;;;;;5077539;28;20262;-83
2022/05/28 08:17:40;;;;;;;2.92;2.28;;;25.90;99.90;;;;;;5086961;28;20612;-82
2022/05/28 08:20:09;;;;;;;2.65;2.13;;;26.10;99.90;;;;;;5084924;28;21157;-82
2022/05/28 08:25:20;;;;;;;3.20;2.30;;;25.80;99.90;;;;;;5078436;28;20222;-82
2022/05/28 08:27:47;;;;;;;2.60;2.40;;;25.50;99.90;;;;;;5083894;28;20788;-84
2022/05/28 08:30:15;;;;;;;2.67;2.20;;;25.80;99.90;;;;;;5080143;28;20258;-83
2022/05/28 08:32:43;;;;;;;3.20;2.10;;;26.20;99.90;;;;;;5082230;28;20663;-80
2022/05/28 08:35:11;;;;;;;2.00;1.85;;;26.40;99.90;;;;;;5082561;28;20226;-84
2022/05/28 08:37:38;;;;;;;2.22;2.10;;;26.60;99.90;;;;;;5081385;28;20683;-86
2022/05/28 08:40:06;;;;;;;2.67;2.25;;;27.00;99.90;;;;;;5085141;28;20632;-85
2022/05/28 08:42:33;;;;;;;2.13;1.85;;;27.20;99.90;;;;;;5086855;28;20205;-85
2022/05/28 08:45:05;;;;;;;1.98;1.88;;;27.20;99.90;;;;;;5085355;28;20222;-85
2022/05/28 08:47:37;;;;;;;2.40;2.20;;;26.90;99.90;;;;;;5081468;28;20309;-87
2022/05/28 08:50:10;;;;;;;2.40;2.20;;;27.00;99.90;;;;;;5087652;28;20237;-85
2022/05/28 08:52:43;;;;;;;5.43;2.30;;;27.00;99.90;;;;;;5079108;28;20696;-83
2022/05/28 08:55:16;;;;;;;3.63;2.10;;;27.20;99.90;;;;;;5080957;28;20223;-85
2022/05/28 08:57:53;;;;;;;2.88;2.10;;;26.70;99.90;;;;;;5083126;28;20650;-84
2022/05/28 09:00:28;;;;;;;3.17;2.22;;;26.40;99.90;;;;;;5080928;28;20336;-84
2022/05/28 09:03:02;;;;;;;2.17;1.98;;;26.20;99.90;;;;;;5082837;28;20189;-84
2022/05/28 09:05:35;;;;;;;2.58;1.92;;;26.40;99.90;;;;;;5085166;28;20216;-83
2022/05/28 09:08:04;;;;;;;1.70;1.60;;;26.90;99.90;;;;;;5078682;28;20624;-84
2022/05/28 09:10:36;;;;;;;2.60;1.90;;;26.80;99.90;;;;;;5083986;28;20222;-85
2022/05/28 09:13:12;;;;;;;2.78;2.00;;;26.70;99.90;;;;;;5081620;28;20237;-84
2022/05/28 09:15:41;;;;;;;2.38;2.00;;;27.00;99.90;;;;;;5083305;28;20216;-83
2022/05/28 09:18:12;;;;;;;3.30;2.17;;;27.30;99.90;;;;;;5080279;28;20213;-85
2022/05/28 09:20:43;;;;;;;2.25;2.05;;;27.60;99.90;;;;;;5080759;28;20220;-83
2022/05/28 09:23:10;;;;;;;2.65;1.73;;;27.80;99.90;;;;;;5080478;28;20195;-84
2022/05/28 09:25:43;;;;;;;3.03;1.98;;;28.10;99.90;;;;;;5078654;28;20778;-84
2022/05/28 09:28:22;;;;;;;1.95;1.77;;;28.20;99.90;;;;;;5080039;28;20232;-84
2022/05/28 09:31:01;;;;;;;1.70;1.60;;;28.10;99.90;;;;;;5084789;28;20735;-86
2022/05/28 09:33:40;;;;;;;2.15;1.65;;;27.80;99.90;;;;;;5082491;28;20197;-84
2022/05/28 09:36:16;;;;;;;1.92;1.73;;;27.50;99.90;;;;;;5077633;28;20190;-83
2022/05/28 09:38:55;;;;;;;1.73;1.63;;;27.80;99.90;;;;;;5077019;28;20201;-85
2022/05/28 09:41:51;;;;;;;1.58;1.45;;;28.30;99.90;;;;;;5078001;28;20198;-85
2022/05/28 09:44:29;;;;;;;3.10;2.03;;;28.80;99.90;;;;;;5084926;28;20324;-84
2022/05/28 09:47:07;;;;;;;2.45;1.60;;;29.10;99.90;;;;;;5086096;28;20205;-84
2022/05/28 09:49:35;;;;;;;1.73;1.60;;;29.10;99.90;;;;;;5086263;28;20221;-87
2022/05/28 09:52:11;;;;;;;1.67;1.58;;;29.20;99.90;;;;;;5085262;28;20205;-79
2022/05/28 09:54:38;;;;;;;1.48;1.38;;;29.10;99.90;;;;;;5084185;28;20229;-83
2022/05/28 09:57:10;;;;;;;1.98;1.70;;;29.10;99.90;;;;;;5085744;28;20194;-85
2022/05/28 09:59:49;;;;;;;2.42;1.58;;;29.10;99.90;;;;;;5084198;28;20460;-84
2022/05/28 10:02:20;;;;;;;2.05;1.60;;;29.20;99.90;;;;;;5082252;28;20208;-83
2022/05/28 10:04:51;;;;;;;1.45;1.35;;;29.40;99.90;;;;;;5085575;28;20229;-85
2022/05/28 10:07:34;;;;;;;1.40;1.30;;;29.30;99.90;;;;;;5076245;28;20224;-84
2022/05/28 10:10:02;;;;;;;4.22;1.45;;;29.30;99.90;;;;;;5078570;28;20302;-86
2022/05/28 10:12:31;;;;;;;2.13;1.40;;;29.30;99.90;;;;;;5084229;28;20194;-85
2022/05/28 10:15:03;;;;;;;1.33;1.20;;;29.40;99.90;;;;;;5084076;28;20228;-84
2022/05/28 10:17:32;;;;;;;2.55;1.08;;;29.30;99.90;;;;;;5086687;28;20213;-84
2022/05/28 10:20:02;;;;;;;1.30;0.90;;;29.40;99.90;;;;;;5081463;28;20217;-86
2022/05/28 10:22:32;;;;;;;1.17;1.00;;;29.60;99.90;;;;;;5078921;28;20664;-85
2022/05/28 10:25:02;;;;;;;1.52;1.40;;;29.60;99.90;;;;;;5075936;28;20222;-83
2022/05/28 10:27:35;;;;;;;1.42;1.00;;;29.50;99.90;;;;;;5078047;28;20193;-85
2022/05/28 10:30:09;;;;;;;1.42;1.13;;;29.60;99.90;;;;;;5077054;28;20221;-85
2022/05/28 10:32:39;;;;;;;1.08;0.98;;;29.50;99.90;;;;;;5080217;28;20442;-83
2022/05/28 10:35:14;;;;;;;10.07;1.20;;;29.40;99.90;;;;;;5079371;28;20712;-85
2022/05/28 10:37:43;;;;;;;0.85;0.80;;;29.50;99.90;;;;;;5077341;28;20201;-86
2022/05/28 10:40:14;;;;;;;0.55;0.55;;;29.40;99.90;;;;;;5079850;28;20217;-84
2022/05/28 10:42:41;;;;;;;0.73;0.57;;;29.70;99.90;;;;;;5076394;28;20198;-84
2022/05/28 10:45:10;;;;;;;1.20;0.73;;;29.90;99.90;;;;;;5084390;28;20285;-85
2022/05/28 10:48:01;;;;;;;0.50;0.50;;;30.00;99.90;;;;;;5084430;28;20683;-85
2022/05/28 10:50:44;;;;;;;0.60;0.60;;;30.00;99.90;;;;;;5076850;28;20222;-86
2022/05/28 10:53:29;;;;;;;0.70;0.70;;;29.70;99.90;;;;;;5079235;28;20197;-85
2022/05/28 10:56:14;;;;;;;0.40;0.40;;;29.40;99.90;;;;;;5080297;28;20228;-85
2022/05/28 10:58:53;;;;;;;0.85;0.65;;;29.40;99.90;;;;;;5078449;28;20268;-85
2022/05/28 11:01:36;;;;;;;0.60;0.60;;;29.10;99.90;;;;;;5074910;28;20233;-84
2022/05/28 11:04:39;;;;;;;3.40;0.55;;;28.70;99.90;;;;;;5079135;28;20209;-85
2022/05/28 11:07:30;;;;;;;0.52;0.52;;;28.70;99.90;;;;;;5076838;28;20214;-83
2022/05/28 11:10:08;;;;;;;1.27;0.57;;;29.10;99.00;;;;;;5078078;28;20222;-85
2022/05/28 11:13:08;;;;;;;0.52;0.52;;;29.10;98.10;;;;;;5083427;28;20250;-85
2022/05/28 11:15:53;;;;;;;0.50;0.50;;;29.20;99.50;;;;;;5082832;28;20290;-83
2022/05/28 11:18:46;;;;;;;0.52;0.47;;;29.00;99.80;;;;;;5077434;28;20243;-85
2022/05/28 11:21:25;;;;;;;0.57;0.47;;;29.00;97.60;;;;;;5077548;28;20774;-86
2022/05/28 11:24:18;;;;;;;0.50;0.50;;;29.20;99.40;;;;;;5074827;28;20197;-84
2022/05/28 11:26:55;;;;;;;0.50;0.50;;;29.60;99.40;;;;;;5067365;28;20221;-85
2022/05/28 11:29:41;;;;;;;1.48;0.40;;;29.80;98.20;;;;;;5072817;28;20233;-85
2022/05/28 11:32:13;;;;;;;1.00;0.50;;;29.80;95.90;;;;;;5077646;28;20489;-85
2022/05/28 11:34:43;;;;;;;0.40;0.40;;;30.10;98.20;;;;;;5077276;28;20668;-85
2022/05/28 11:37:16;;;;;;;0.40;0.40;;;30.50;97.90;;;;;;5075677;28;20417;-85
2022/05/28 11:39:51;;;;;;;2.92;0.50;;;30.90;97.80;;;;;;5076668;28;20185;-85
2022/05/28 11:42:29;;;;;;;0.70;0.50;;;31.30;98.00;;;;;;5079738;28;20218;-84
2022/05/28 11:44:58;;;;;;;1.20;0.35;;;31.60;96.90;;;;;;5079797;28;20196;-84
2022/05/28 11:47:36;;;;;;;0.77;0.40;;;31.70;96.80;;;;;;5083669;28;20551;-84
2022/05/28 11:52:59;;;;;;;0.40;0.40;;;31.50;95.30;;;;;;5078086;28;20251;-84
2022/05/28 11:55:30;;;;;;;0.55;0.43;;;31.50;95.80;;;;;;5077151;28;20683;-84
2022/05/28 11:58:02;;;;;;;0.40;0.40;;;31.40;95.00;;;;;;5074890;28;20222;-85
2022/05/28 12:00:32;;;;;;;4.57;0.60;;;30.80;94.10;;;;;;5077324;28;20239;-85
2022/05/28 12:03:05;;;;;;;0.60;0.40;;;30.20;94.20;;;;;;5079349;28;20213;-85
2022/05/28 12:05:42;;;;;;;0.47;0.43;;;29.70;93.90;;;;;;5080839;28;20595;-85
2022/05/28 12:08:18;;;;;;;0.30;0.30;;;29.60;93.10;;;;;;5078585;28;20224;-86
2022/05/28 12:10:47;;;;;;;0.40;0.40;;;29.80;93.00;;;;;;5079275;28;20200;-85
2022/05/28 12:13:30;;;;;;;0.40;0.40;;;30.10;92.60;;;;;;5076260;28;20229;-84
2022/05/28 12:16:11;;;;;;;1.33;0.30;;;30.40;92.60;;;;;;5084574;28;20198;-85
2022/05/28 12:18:41;;;;;;;0.43;0.40;;;30.10;91.60;;;;;;5078721;28;20213;-85
2022/05/28 12:21:08;;;;;;;1.05;0.40;;;29.60;91.60;;;;;;5077038;28;20209;-85
2022/05/28 12:23:39;;;;;;;0.40;0.40;;;29.10;92.60;;;;;;5083524;28;20235;-84
2022/05/28 12:26:23;;;;;;;0.50;0.50;;;28.90;93.30;;;;;;5074555;28;20660;-85
2022/05/28 12:28:53;;;;;;;0.50;0.50;;;29.00;93.80;;;;;;5078081;28;20764;-85
2022/05/28 12:31:25;;;;;;;0.45;0.45;;;29.20;93.80;;;;;;5074054;28;20596;-85
2022/05/28 12:33:55;;;;;;;0.63;0.50;;;29.10;94.10;;;;;;5073627;28;20226;-85
2022/05/28 12:36:28;;;;;;;0.70;0.40;;;29.00;94.30;;;;;;5074302;28;20202;-85
2022/05/28 12:39:04;;;;;;;0.60;0.60;;;28.90;94.60;;;;;;5078562;28;20233;-85
2022/05/28 12:41:33;;;;;;;0.80;0.43;;;29.10;94.80;;;;;;5074365;28;20611;-85
2022/05/28 12:44:18;;;;;;;0.40;0.40;;;29.70;95.60;;;;;;5078793;28;20218;-85
2022/05/28 12:46:54;;;;;;;0.95;0.40;;;30.10;93.90;;;;;;5084751;28;20613;-85
2022/05/28 12:49:26;;;;;;;0.40;0.40;;;30.30;93.40;;;;;;5077208;28;20210;-85
2022/05/28 12:52:14;;;;;;;0.30;0.30;;;30.40;92.90;;;;;;5077096;28;20190;-85
2022/05/28 12:54:42;;;;;;;1.27;0.60;;;30.50;90.20;;;;;;5082479;28;20204;-85
2022/05/28 12:57:14;;;;;;;0.60;0.40;;;30.50;91.80;;;;;;5086028;28;20217;-85
2022/05/28 12:59:47;;;;;;;0.55;0.40;;;30.00;91.30;;;;;;5082802;28;20194;-84
2022/05/28 13:02:30;;;;;;;0.40;0.40;;;29.30;90.60;;;;;;5080453;28;20702;-86
2022/05/28 13:05:04;;;;;;;0.40;0.40;;;28.70;90.00;;;;;;5077217;28;20278;-84
2022/05/28 13:07:35;;;;;;;0.73;0.47;;;28.80;91.00;;;;;;5079879;28;20305;-85
2022/05/28 13:10:17;;;;;;;0.38;0.38;;;29.20;92.10;;;;;;5083509;28;20232;-85
2022/05/28 13:12:52;;;;;;;0.50;0.50;;;29.70;90.30;;;;;;5080620;28;20231;-85
2022/05/28 13:16:02;;;;;;;0.50;0.50;;;29.90;90.50;;;;;;5086403;28;20198;-86
2022/05/28 13:19:05;;;;;;;1.42;0.40;;;29.30;89.10;;;;;;5082298;28;20584;-85
2022/05/28 13:21:57;;;;;;;0.40;0.40;;;28.50;90.30;;;;;;5080278;28;20212;-85
2022/05/28 13:25:00;;;;;;;0.40;0.40;;;28.20;90.80;;;;;;5071418;28;20237;-86
2022/05/28 13:27:55;;;;;;;0.25;0.25;;;28.30;91.30;;;;;;5086783;28;20250;-87